Time;durP1;ratioP1;P1;durP2;ratioP2;P2;SDS_P1;SDS_P2;PMS_P1;PMS_P2;Temp;Humidity;BMP_temperature;BMP_pressure;BME280_temperature;BME280_humidity;BME280_pressure;Samples;Min_cycle;Max_cycle;Signal;HPM_P1;HPM_P2
2022/09/18 00:01:59;;;;;;;5.35;1.73;;;12.10;99.90;;;;;;5044063;28;20021;-35
2022/09/18 00:04:26;;;;;;;5.75;1.17;;;12.10;99.90;;;;;;5042995;28;20076;-34
2022/09/18 00:06:51;;;;;;;5.25;1.42;;;12.20;99.90;;;;;;5042267;28;20031;-34
2022/09/18 00:09:17;;;;;;;4.13;1.20;;;12.10;99.90;;;;;;5043398;28;20021;-35
2022/09/18 00:11:45;;;;;;;6.30;1.35;;;12.20;99.90;;;;;;5043219;28;20029;-35
2022/09/18 00:14:15;;;;;;;4.13;1.40;;;12.20;99.90;;;;;;5043600;28;20373;-35
2022/09/18 00:16:41;;;;;;;5.38;1.30;;;12.30;99.90;;;;;;5044447;28;20024;-34
2022/09/18 00:19:07;;;;;;;5.20;1.25;;;12.20;99.90;;;;;;5043479;28;20064;-35
2022/09/18 00:21:36;;;;;;;4.40;1.10;;;12.30;99.90;;;;;;5044476;28;20104;-34
2022/09/18 00:24:02;;;;;;;6.78;1.40;;;12.30;99.90;;;;;;5044439;28;20103;-34
2022/09/18 00:26:28;;;;;;;10.30;1.90;;;12.30;99.90;;;;;;5043473;28;20059;-35
2022/09/18 00:28:56;;;;;;;3.65;1.10;;;12.30;99.90;;;;;;5044877;28;20025;-35
2022/09/18 00:31:24;;;;;;;4.30;1.10;;;12.30;99.90;;;;;;5044053;28;20032;-34
2022/09/18 00:33:51;;;;;;;5.97;1.40;;;12.40;99.90;;;;;;5044399;28;20112;-35
2022/09/18 00:36:17;;;;;;;5.13;1.13;;;12.30;99.90;;;;;;5045335;28;20017;-35
2022/09/18 00:38:44;;;;;;;4.18;1.10;;;12.40;99.90;;;;;;5048539;28;20074;-35
2022/09/18 00:41:16;;;;;;;6.13;1.40;;;12.40;99.90;;;;;;5046936;28;20039;-34
2022/09/18 00:43:41;;;;;;;3.40;1.38;;;12.40;99.90;;;;;;5048074;28;20028;-36
2022/09/18 00:46:08;;;;;;;3.92;1.00;;;12.40;99.90;;;;;;5047704;28;20120;-34
2022/09/18 00:49:09;;;;;;;5.28;1.30;;;12.50;99.90;;;;;;5047423;28;20036;-35
2022/09/18 00:51:36;;;;;;;8.13;1.50;;;12.40;99.90;;;;;;5047557;28;20036;-35
2022/09/18 00:54:26;;;;;;;4.60;1.40;;;12.50;99.90;;;;;;5047132;28;20463;-34
2022/09/18 00:56:54;;;;;;;6.38;1.15;;;12.40;99.90;;;;;;5048393;28;20024;-34
2022/09/18 00:59:28;;;;;;;4.97;1.10;;;12.40;99.90;;;;;;5036284;28;20064;-34
2022/09/18 01:01:55;;;;;;;6.47;1.63;;;12.50;99.90;;;;;;5047541;28;20025;-34
2022/09/18 01:04:21;;;;;;;4.95;1.10;;;12.40;99.90;;;;;;5046975;28;20108;-35
2022/09/18 01:06:49;;;;;;;5.03;1.52;;;12.50;99.90;;;;;;5047513;28;20108;-34
2022/09/18 01:09:44;;;;;;;4.25;1.40;;;12.50;99.90;;;;;;5046534;28;20445;-34
2022/09/18 01:12:46;;;;;;;5.10;1.48;;;12.50;99.90;;;;;;5046469;28;20469;-34
2022/09/18 01:15:44;;;;;;;4.68;1.42;;;12.50;99.90;;;;;;5038680;28;20469;-33
2022/09/18 01:18:24;;;;;;;5.38;1.27;;;12.50;99.90;;;;;;5047052;28;20025;-34
2022/09/18 01:21:02;;;;;;;4.25;1.10;;;12.40;99.90;;;;;;5047085;28;20037;-35
2022/09/18 01:23:59;;;;;;;6.57;1.10;;;12.50;99.90;;;;;;5047307;28;20495;-34
2022/09/18 01:26:54;;;;;;;3.88;1.10;;;12.40;99.90;;;;;;5046552;28;20037;-34
2022/09/18 01:29:43;;;;;;;3.38;1.10;;;12.50;99.90;;;;;;5046151;28;20025;-34
2022/09/18 01:32:20;;;;;;;2.70;0.70;;;12.50;99.90;;;;;;5047004;28;20528;-35
2022/09/18 01:35:07;;;;;;;4.90;1.00;;;12.40;99.90;;;;;;5047179;28;20025;-35
2022/09/18 01:37:48;;;;;;;6.80;1.27;;;12.40;99.90;;;;;;5046017;28;20025;-34
2022/09/18 01:40:38;;;;;;;6.32;0.88;;;12.40;99.90;;;;;;5042430;28;20037;-35
2022/09/18 01:43:07;;;;;;;4.25;1.00;;;12.40;99.90;;;;;;5046629;28;20100;-35
2022/09/18 01:45:49;;;;;;;5.80;1.35;;;12.40;99.90;;;;;;5047404;28;20104;-35
2022/09/18 01:48:27;;;;;;;6.05;1.27;;;12.40;99.90;;;;;;5045469;28;20096;-34
2022/09/18 01:51:04;;;;;;;3.95;1.05;;;12.40;99.90;;;;;;5046032;28;20032;-35
2022/09/18 01:53:36;;;;;;;2.30;0.77;;;12.40;99.90;;;;;;5046394;28;20452;-35
2022/09/18 01:56:08;;;;;;;5.38;1.20;;;12.40;99.90;;;;;;5046818;28;20498;-35
2022/09/18 01:58:36;;;;;;;4.55;1.10;;;12.50;99.90;;;;;;5045820;28;20053;-35
2022/09/18 02:01:07;;;;;;;3.03;0.85;;;12.50;99.90;;;;;;5046181;28;20397;-35
2022/09/18 02:03:38;;;;;;;3.10;0.77;;;12.50;99.90;;;;;;5047216;28;20025;-34
2022/09/18 02:06:35;;;;;;;4.55;1.38;;;12.50;99.90;;;;;;5046672;28;20044;-35
2022/09/18 02:09:01;;;;;;;2.75;0.90;;;12.40;99.90;;;;;;5046332;28;20021;-35
2022/09/18 02:11:29;;;;;;;4.65;1.27;;;12.50;99.90;;;;;;5045427;28;20075;-35
2022/09/18 02:14:14;;;;;;;5.68;1.30;;;12.40;99.90;;;;;;5046160;28;20021;-35
2022/09/18 02:16:50;;;;;;;4.70;1.50;;;12.50;99.90;;;;;;5044220;28;20029;-35
2022/09/18 02:19:36;;;;;;;3.72;1.05;;;12.40;99.90;;;;;;5044974;28;20075;-34
2022/09/18 02:22:06;;;;;;;2.80;0.90;;;12.40;99.90;;;;;;5046292;28;20035;-35
2022/09/18 02:24:35;;;;;;;3.83;1.00;;;12.40;99.90;;;;;;5046127;28;20331;-35
2022/09/18 02:27:04;;;;;;;4.75;1.30;;;12.40;99.90;;;;;;5045328;28;20473;-35
2022/09/18 02:29:31;;;;;;;3.90;1.50;;;12.40;99.90;;;;;;5045259;28;20104;-36
2022/09/18 02:31:58;;;;;;;3.88;0.90;;;12.40;99.90;;;;;;5045707;28;20496;-36
2022/09/18 02:34:24;;;;;;;3.30;0.90;;;12.40;99.90;;;;;;5045508;28;20029;-35
2022/09/18 02:36:55;;;;;;;2.78;0.80;;;12.40;99.90;;;;;;5045582;28;20388;-35
2022/09/18 02:39:58;;;;;;;2.88;1.00;;;12.40;99.90;;;;;;5045031;28;20111;-35
2022/09/18 02:42:40;;;;;;;;;;;12.40;99.90;;;;;;5043128;28;20107;-34
2022/09/18 02:45:27;;;;;;;2.78;0.95;;;12.40;99.90;;;;;;5045000;28;19968;-34
2022/09/18 02:48:01;;;;;;;4.55;0.80;;;12.30;99.90;;;;;;5045069;28;20278;-36
2022/09/18 02:50:53;;;;;;;4.78;1.45;;;12.30;99.90;;;;;;5044542;28;20037;-37
2022/09/18 02:53:35;;;;;;;2.50;0.80;;;12.30;99.90;;;;;;5036145;28;20029;-36
2022/09/18 02:56:13;;;;;;;5.40;0.90;;;12.30;99.90;;;;;;5046084;28;20021;-35
2022/09/18 02:58:44;;;;;;;5.68;1.52;;;12.30;99.90;;;;;;5044802;28;20498;-35
2022/09/18 03:01:12;;;;;;;5.50;0.90;;;12.30;99.90;;;;;;5043569;28;20028;-35
2022/09/18 03:03:38;;;;;;;3.30;1.10;;;12.30;99.90;;;;;;5045313;28;20029;-34
2022/09/18 03:06:05;;;;;;;2.70;0.90;;;12.30;99.90;;;;;;5044990;28;20021;-34
2022/09/18 03:08:31;;;;;;;6.70;1.50;;;12.30;99.90;;;;;;5044182;28;20017;-34
2022/09/18 03:10:56;;;;;;;4.28;0.90;;;12.30;99.90;;;;;;5045366;28;20036;-34
2022/09/18 03:13:22;;;;;;;5.68;0.82;;;12.30;99.90;;;;;;5044251;28;20040;-35
2022/09/18 03:15:47;;;;;;;5.32;2.03;;;12.30;99.90;;;;;;5044304;28;20021;-35
2022/09/18 03:18:13;;;;;;;5.65;1.10;;;12.30;99.90;;;;;;5040775;28;20076;-34
2022/09/18 03:20:41;;;;;;;4.45;1.02;;;12.30;99.90;;;;;;5025753;28;20041;-35
2022/09/18 03:23:07;;;;;;;3.97;1.00;;;12.30;99.90;;;;;;5041108;28;20095;-36
2022/09/18 03:25:33;;;;;;;2.58;0.80;;;12.30;99.90;;;;;;5044932;28;20104;-35
2022/09/18 03:27:58;;;;;;;3.55;0.88;;;12.40;99.90;;;;;;5044554;28;20107;-35
2022/09/18 03:30:24;;;;;;;1.42;0.63;;;12.30;99.90;;;;;;5043825;28;20484;-35
2022/09/18 03:32:49;;;;;;;2.25;0.60;;;12.30;99.90;;;;;;5044689;28;20033;-36
2022/09/18 03:35:15;;;;;;;2.42;0.80;;;12.40;99.90;;;;;;5043754;28;20049;-35
2022/09/18 03:37:40;;;;;;;3.65;0.70;;;12.30;99.90;;;;;;5044880;28;20024;-35
2022/09/18 03:40:07;;;;;;;2.22;0.70;;;12.30;99.90;;;;;;5044046;28;20056;-35
2022/09/18 03:42:33;;;;;;;3.25;0.95;;;12.30;99.90;;;;;;5044429;28;20017;-35
2022/09/18 03:44:58;;;;;;;5.38;0.93;;;12.30;99.90;;;;;;5045320;28;20025;-36
2022/09/18 03:47:25;;;;;;;5.15;1.10;;;12.30;99.90;;;;;;5043941;28;20453;-36
2022/09/18 03:49:50;;;;;;;2.90;1.10;;;12.30;99.90;;;;;;5044524;28;20170;-36
2022/09/18 03:52:16;;;;;;;3.08;1.00;;;12.20;99.90;;;;;;5043484;28;20536;-36
2022/09/18 03:54:41;;;;;;;4.03;1.08;;;12.30;99.90;;;;;;5044259;28;20029;-35
2022/09/18 03:57:07;;;;;;;4.18;1.20;;;12.20;99.90;;;;;;5043626;28;20614;-35
2022/09/18 03:59:33;;;;;;;4.70;1.08;;;12.30;99.90;;;;;;5044744;28;20106;-35
2022/09/18 04:01:58;;;;;;;4.65;1.02;;;12.20;99.90;;;;;;5044754;28;20104;-35
2022/09/18 04:04:24;;;;;;;2.60;0.80;;;12.30;99.90;;;;;;5042896;28;20029;-34
2022/09/18 04:06:49;;;;;;;3.28;0.70;;;12.30;99.90;;;;;;5044852;28;20057;-34
2022/09/18 04:09:15;;;;;;;4.50;1.27;;;12.30;99.90;;;;;;5043991;28;20273;-35
2022/09/18 04:11:41;;;;;;;6.18;1.20;;;12.20;99.90;;;;;;5043724;28;20017;-35
2022/09/18 04:14:07;;;;;;;3.83;0.90;;;12.30;99.90;;;;;;5043921;28;20138;-34
2022/09/18 04:16:33;;;;;;;2.63;0.70;;;12.30;99.90;;;;;;5043811;28;20024;-34
2022/09/18 04:18:58;;;;;;;3.05;0.90;;;12.30;99.90;;;;;;5044139;28;20547;-35
2022/09/18 04:21:24;;;;;;;2.58;0.85;;;12.20;99.90;;;;;;5043772;28;20037;-35
2022/09/18 04:23:49;;;;;;;2.88;0.73;;;12.30;99.90;;;;;;5043834;28;20021;-36
2022/09/18 04:26:15;;;;;;;5.75;1.00;;;12.20;99.90;;;;;;5042891;28;20032;-34
2022/09/18 04:28:40;;;;;;;2.22;0.80;;;12.20;99.90;;;;;;5043802;28;20017;-35
2022/09/18 04:31:06;;;;;;;2.65;0.80;;;12.20;99.90;;;;;;5043413;28;20293;-34
2022/09/18 04:33:31;;;;;;;3.53;0.70;;;12.20;99.90;;;;;;5043296;28;20025;-34
2022/09/18 04:35:57;;;;;;;4.40;1.00;;;12.20;99.90;;;;;;5044128;28;20511;-35
2022/09/18 04:38:26;;;;;;;1.95;0.55;;;12.20;99.90;;;;;;5043931;28;20033;-35
2022/09/18 04:40:56;;;;;;;3.92;0.70;;;12.20;99.90;;;;;;5043954;28;20579;-35
2022/09/18 04:43:23;;;;;;;1.73;0.60;;;12.20;99.90;;;;;;5044006;28;20086;-33
2022/09/18 04:45:48;;;;;;;2.83;0.95;;;12.20;99.90;;;;;;5043942;28;20056;-35
2022/09/18 04:48:15;;;;;;;2.65;0.60;;;12.30;99.90;;;;;;5044708;28;20465;-34
2022/09/18 04:50:41;;;;;;;4.05;0.90;;;12.30;99.90;;;;;;5044840;28;20460;-35
2022/09/18 04:53:07;;;;;;;2.97;0.70;;;12.30;99.90;;;;;;5044011;28;20035;-36
2022/09/18 04:55:32;;;;;;;1.33;0.60;;;12.30;99.90;;;;;;5044597;28;20020;-35
2022/09/18 04:57:58;;;;;;;3.38;0.63;;;12.20;99.90;;;;;;5044456;28;20751;-35
2022/09/18 05:00:23;;;;;;;2.75;0.75;;;12.30;99.90;;;;;;5043186;28;20040;-35
2022/09/18 05:02:49;;;;;;;1.52;0.75;;;12.20;99.90;;;;;;5044636;28;20070;-36
2022/09/18 05:05:14;;;;;;;5.40;0.80;;;12.30;99.90;;;;;;5043523;28;20028;-36
2022/09/18 05:07:40;;;;;;;3.10;1.10;;;12.20;99.90;;;;;;5043796;28;20033;-35
2022/09/18 05:10:09;;;;;;;3.33;0.88;;;12.20;99.90;;;;;;5044205;28;20033;-40
2022/09/18 05:12:35;;;;;;;7.47;0.93;;;12.20;99.90;;;;;;5044433;28;20047;-35
2022/09/18 05:15:00;;;;;;;2.88;0.75;;;12.20;99.90;;;;;;5043590;28;20453;-35
2022/09/18 05:17:26;;;;;;;4.43;0.75;;;12.20;99.90;;;;;;5043148;28;20044;-36
2022/09/18 05:19:51;;;;;;;3.13;0.80;;;12.20;99.90;;;;;;5044279;28;20036;-35
2022/09/18 05:22:17;;;;;;;3.88;0.70;;;12.20;99.90;;;;;;5042992;28;20112;-35
2022/09/18 05:24:42;;;;;;;4.03;0.75;;;12.20;99.90;;;;;;5047133;28;20025;-34
2022/09/18 05:27:08;;;;;;;2.72;0.70;;;12.10;99.90;;;;;;5047182;28;20028;-35
2022/09/18 05:29:34;;;;;;;4.20;0.82;;;12.10;99.90;;;;;;5046945;28;20107;-34
2022/09/18 05:32:00;;;;;;;3.33;0.80;;;12.10;99.90;;;;;;5047355;28;20147;-35
2022/09/18 05:34:25;;;;;;;4.80;0.90;;;12.20;99.90;;;;;;5047084;28;20485;-35
2022/09/18 05:36:51;;;;;;;2.53;0.60;;;12.10;99.90;;;;;;5047055;28;20497;-34
2022/09/18 05:39:16;;;;;;;3.78;0.63;;;12.10;99.90;;;;;;5047384;28;20049;-36
2022/09/18 05:41:42;;;;;;;4.00;1.23;;;12.20;99.90;;;;;;5046917;28;20056;-35
2022/09/18 05:44:07;;;;;;;2.13;0.90;;;12.10;99.90;;;;;;5046845;28;20425;-34
2022/09/18 05:46:33;;;;;;;4.10;0.98;;;12.20;99.90;;;;;;5047405;28;20090;-34
2022/09/18 05:48:58;;;;;;;1.92;0.60;;;12.20;99.90;;;;;;5047397;28;20366;-34
2022/09/18 05:51:24;;;;;;;3.00;0.88;;;12.20;99.90;;;;;;5046718;28;20028;-34
2022/09/18 05:53:49;;;;;;;2.05;0.70;;;12.10;99.90;;;;;;5046596;28;20473;-35
2022/09/18 05:56:15;;;;;;;2.30;0.70;;;12.20;99.90;;;;;;5046457;28;20029;-34
2022/09/18 05:58:41;;;;;;;2.67;0.70;;;12.20;99.90;;;;;;5047398;28;20520;-35
2022/09/18 06:01:07;;;;;;;2.83;0.60;;;12.20;99.90;;;;;;5046917;28;20120;-36
2022/09/18 06:03:33;;;;;;;3.38;1.48;;;12.20;99.90;;;;;;5047019;28;20649;-35
2022/09/18 06:05:58;;;;;;;1.40;0.50;;;12.20;99.90;;;;;;5047058;28;20029;-35
2022/09/18 06:08:24;;;;;;;2.25;0.63;;;12.20;99.90;;;;;;5045834;28;20465;-34
2022/09/18 06:10:49;;;;;;;5.35;0.80;;;12.30;99.90;;;;;;5046654;28;20067;-34
2022/09/18 06:13:17;;;;;;;2.20;0.50;;;12.30;99.90;;;;;;5045585;28;20025;-34
2022/09/18 06:15:47;;;;;;;1.98;0.50;;;12.20;99.90;;;;;;5046604;28;20026;-33
2022/09/18 06:18:13;;;;;;;2.80;0.70;;;12.30;99.90;;;;;;5045373;28;20025;-34
2022/09/18 06:20:41;;;;;;;1.83;0.55;;;12.30;99.90;;;;;;5046457;28;20393;-34
2022/09/18 06:23:07;;;;;;;4.60;1.13;;;12.30;99.90;;;;;;5046036;28;20102;-34
2022/09/18 06:25:33;;;;;;;2.33;0.70;;;12.30;99.90;;;;;;5045719;28;20029;-35
2022/09/18 06:27:59;;;;;;;2.05;0.52;;;12.30;99.90;;;;;;5046510;28;20047;-34
2022/09/18 06:30:26;;;;;;;2.42;0.50;;;12.30;99.90;;;;;;5045534;28;20483;-34
2022/09/18 06:32:53;;;;;;;2.47;1.00;;;12.30;99.90;;;;;;5045863;28;20151;-35
2022/09/18 06:35:19;;;;;;;2.55;0.90;;;12.30;99.90;;;;;;5045412;28;20031;-36
2022/09/18 06:37:44;;;;;;;2.33;0.82;;;12.30;99.90;;;;;;5046188;28;20025;-36
2022/09/18 06:40:10;;;;;;;1.98;0.50;;;12.30;99.90;;;;;;5044733;28;20106;-36
2022/09/18 06:42:35;;;;;;;1.48;0.43;;;12.30;99.90;;;;;;5045790;28;20102;-34
2022/09/18 06:45:01;;;;;;;3.35;0.90;;;12.20;99.90;;;;;;5045095;28;20025;-34
2022/09/18 06:47:27;;;;;;;2.78;1.00;;;12.20;99.90;;;;;;5045460;28;20033;-36
2022/09/18 06:49:52;;;;;;;0.93;0.50;;;12.20;99.90;;;;;;5045948;28;20480;-33
2022/09/18 06:52:18;;;;;;;2.90;0.60;;;12.30;99.90;;;;;;5044838;28;20248;-34
2022/09/18 06:54:43;;;;;;;3.55;1.08;;;12.30;99.90;;;;;;5045672;28;20152;-36
2022/09/18 06:57:09;;;;;;;1.63;0.50;;;12.30;99.90;;;;;;5062033;28;20031;-35
2022/09/18 06:59:36;;;;;;;1.85;0.60;;;12.40;99.90;;;;;;5054054;28;20045;-36
2022/09/18 07:02:02;;;;;;;2.20;0.73;;;12.40;99.90;;;;;;5046024;28;20408;-35
2022/09/18 07:04:28;;;;;;;2.33;0.70;;;12.40;99.90;;;;;;5043204;28;20035;-37
2022/09/18 07:06:53;;;;;;;3.13;0.63;;;12.50;99.90;;;;;;5043761;28;20108;-35
2022/09/18 07:09:19;;;;;;;1.45;0.50;;;12.50;99.90;;;;;;5043857;28;20392;-36
2022/09/18 07:11:44;;;;;;;2.00;0.80;;;12.50;99.90;;;;;;5044725;28;20029;-34
2022/09/18 07:14:10;;;;;;;2.25;0.47;;;12.50;99.90;;;;;;5044107;28;20021;-34
2022/09/18 07:16:36;;;;;;;1.80;0.60;;;12.50;99.90;;;;;;5044694;28;20025;-35
2022/09/18 07:19:03;;;;;;;2.15;0.80;;;12.50;99.90;;;;;;5044160;28;20638;-35
2022/09/18 07:21:29;;;;;;;3.30;0.60;;;12.50;99.90;;;;;;5042626;28;20087;-35
2022/09/18 07:23:55;;;;;;;2.67;0.50;;;12.60;99.90;;;;;;5044466;28;20017;-35
2022/09/18 07:26:20;;;;;;;2.55;0.60;;;12.60;99.90;;;;;;5044032;28;20032;-35
2022/09/18 07:28:46;;;;;;;2.50;0.50;;;12.60;99.90;;;;;;5044891;28;20449;-35
2022/09/18 07:31:12;;;;;;;1.60;0.60;;;12.60;99.90;;;;;;5043027;28;20036;-35
2022/09/18 07:33:39;;;;;;;2.75;0.90;;;12.60;99.90;;;;;;5044363;28;20021;-34
2022/09/18 07:36:05;;;;;;;2.70;0.70;;;12.60;99.90;;;;;;5043527;28;20025;-34
2022/09/18 07:38:33;;;;;;;3.45;0.65;;;12.60;99.90;;;;;;5043530;28;20116;-35
2022/09/18 07:41:01;;;;;;;2.85;0.70;;;12.60;99.90;;;;;;5043958;28;20037;-34
2022/09/18 07:43:27;;;;;;;1.40;0.50;;;12.70;99.90;;;;;;5043171;28;20025;-36
2022/09/18 07:45:52;;;;;;;2.00;0.60;;;12.80;99.90;;;;;;5043272;28;20029;-35
2022/09/18 07:48:18;;;;;;;2.63;0.70;;;12.80;99.90;;;;;;5043814;28;20531;-35
2022/09/18 07:50:45;;;;;;;2.05;0.55;;;12.80;99.90;;;;;;5043997;28;20070;-35
2022/09/18 07:53:10;;;;;;;3.03;0.73;;;12.90;99.90;;;;;;5043431;28;20033;-35
2022/09/18 07:55:36;;;;;;;1.85;0.55;;;12.90;99.90;;;;;;5043535;28;20021;-35
2022/09/18 07:58:04;;;;;;;2.90;0.70;;;13.00;99.90;;;;;;5044331;28;20496;-34
2022/09/18 08:00:34;;;;;;;1.92;0.50;;;13.00;99.90;;;;;;5043106;28;20445;-35
2022/09/18 08:03:08;;;;;;;0.88;0.43;;;13.00;99.90;;;;;;5045863;28;20021;-34
2022/09/18 08:05:34;;;;;;;2.45;1.17;;;12.90;99.90;;;;;;5044100;28;20530;-35
2022/09/18 08:08:11;;;;;;;1.77;0.75;;;12.90;99.90;;;;;;5044134;28;20056;-34
2022/09/18 08:10:38;;;;;;;1.48;0.60;;;12.90;99.90;;;;;;5043822;28;20124;-34
2022/09/18 08:13:05;;;;;;;0.98;0.60;;;13.00;99.90;;;;;;5044002;28;20108;-36
2022/09/18 08:15:31;;;;;;;2.13;0.52;;;13.00;99.90;;;;;;5043359;28;20048;-35
2022/09/18 08:17:57;;;;;;;1.88;0.60;;;12.90;99.90;;;;;;5043044;28;20029;-35
2022/09/18 08:20:23;;;;;;;2.42;0.73;;;12.90;99.90;;;;;;5042545;28;20035;-35
2022/09/18 08:22:49;;;;;;;4.05;1.23;;;12.90;99.90;;;;;;5043292;28;20457;-36
2022/09/18 08:25:16;;;;;;;3.08;0.90;;;12.90;99.90;;;;;;5044049;28;20113;-36
2022/09/18 08:27:41;;;;;;;3.42;0.70;;;12.80;99.90;;;;;;5044646;28;20025;-35
2022/09/18 08:30:09;;;;;;;2.90;0.85;;;12.80;99.90;;;;;;5044133;28;20491;-35
2022/09/18 08:32:36;;;;;;;3.50;0.80;;;12.80;99.90;;;;;;5043601;28;20021;-36
2022/09/18 08:35:02;;;;;;;1.80;0.63;;;12.80;99.90;;;;;;5044086;28;20025;-34
2022/09/18 08:37:29;;;;;;;2.40;0.63;;;12.80;99.90;;;;;;5043990;28;20021;-34
2022/09/18 08:39:55;;;;;;;2.58;0.70;;;13.00;99.90;;;;;;5044603;28;20083;-35
2022/09/18 08:42:39;;;;;;;3.75;0.60;;;13.00;99.90;;;;;;5043213;28;20544;-36
2022/09/18 08:45:31;;;;;;;1.23;0.40;;;13.00;99.90;;;;;;5037543;28;20028;-36
2022/09/18 08:48:05;;;;;;;2.50;0.57;;;13.10;99.90;;;;;;5042585;28;20121;-36
2022/09/18 08:50:35;;;;;;;2.28;0.60;;;13.10;99.90;;;;;;5044180;28;20484;-35
2022/09/18 08:53:19;;;;;;;1.80;0.60;;;13.20;99.90;;;;;;5043679;28;20112;-36
2022/09/18 08:55:47;;;;;;;1.90;0.60;;;13.30;99.90;;;;;;5043892;28;20061;-35
2022/09/18 08:58:17;;;;;;;2.65;0.88;;;13.30;99.90;;;;;;5045261;28;20045;-35
2022/09/18 09:01:00;;;;;;;1.92;0.90;;;13.40;99.90;;;;;;5047354;28;20037;-35
2022/09/18 09:03:48;;;;;;;2.33;0.90;;;13.40;99.90;;;;;;5046708;28;20066;-36
2022/09/18 09:06:37;;;;;;;1.58;0.70;;;13.30;99.90;;;;;;5046660;28;20777;-37
2022/09/18 09:09:31;;;;;;;1.98;0.90;;;13.30;99.90;;;;;;5047269;28;20082;-36
2022/09/18 09:12:13;;;;;;;1.58;0.80;;;13.30;99.90;;;;;;5048217;28;20033;-36
2022/09/18 09:15:24;;;;;;;0.90;0.57;;;13.30;99.90;;;;;;5046775;28;20540;-36
2022/09/18 09:18:08;;;;;;;1.48;0.70;;;13.40;99.90;;;;;;5027377;28;20095;-36
2022/09/18 09:20:52;;;;;;;2.20;0.70;;;13.50;99.90;;;;;;5045888;28;20039;-36
2022/09/18 09:23:24;;;;;;;2.75;0.63;;;13.50;99.90;;;;;;5047059;28;20047;-36
2022/09/18 09:26:09;;;;;;;1.55;0.60;;;13.60;99.90;;;;;;5044143;28;20040;-36
2022/09/18 09:28:54;;;;;;;1.80;0.68;;;13.70;99.90;;;;;;5046939;28;20029;-34
2022/09/18 09:31:25;;;;;;;1.40;0.60;;;13.80;99.90;;;;;;5037392;28;20289;-35
2022/09/18 09:33:59;;;;;;;2.38;0.60;;;13.90;99.90;;;;;;5047082;28;20108;-35
2022/09/18 09:36:28;;;;;;;1.10;0.52;;;14.00;99.90;;;;;;5046806;28;20059;-35
2022/09/18 09:38:58;;;;;;;2.92;0.90;;;14.00;99.90;;;;;;5046976;28;20035;-36
2022/09/18 09:41:30;;;;;;;1.63;0.77;;;13.90;99.90;;;;;;5046141;28;20118;-37
2022/09/18 09:44:21;;;;;;;2.45;0.80;;;13.90;99.90;;;;;;5047348;28;20040;-37
2022/09/18 09:46:52;;;;;;;2.13;0.63;;;13.90;99.90;;;;;;5045905;28;20044;-35
2022/09/18 09:49:24;;;;;;;2.10;0.68;;;13.80;99.90;;;;;;5046059;28;20413;-36
2022/09/18 09:52:09;;;;;;;1.10;0.50;;;13.80;99.90;;;;;;5046841;28;20069;-34
2022/09/18 09:54:35;;;;;;;2.25;0.80;;;13.90;99.90;;;;;;5046949;28;20315;-34
2022/09/18 09:57:22;;;;;;;1.92;0.60;;;13.90;99.90;;;;;;5045470;28;20583;-36
2022/09/18 10:00:08;;;;;;;3.28;0.93;;;14.00;99.90;;;;;;5045548;28;20041;-35
2022/09/18 10:02:43;;;;;;;2.22;0.70;;;14.10;99.90;;;;;;5035926;28;20031;-35
2022/09/18 10:05:32;;;;;;;2.50;0.70;;;14.20;99.90;;;;;;5045790;28;20482;-35
2022/09/18 10:08:07;;;;;;;2.67;0.80;;;14.20;99.90;;;;;;5038600;28;20024;-35
2022/09/18 10:10:40;;;;;;;2.40;0.60;;;14.20;99.90;;;;;;5053900;28;20033;-34
2022/09/18 10:13:17;;;;;;;2.90;0.60;;;14.20;99.90;;;;;;5045766;28;20090;-34
2022/09/18 10:15:44;;;;;;;2.35;0.70;;;14.30;99.90;;;;;;5046945;28;20067;-35
2022/09/18 10:18:24;;;;;;;1.98;0.57;;;14.30;99.90;;;;;;5045342;28;20301;-35
2022/09/18 10:20:55;;;;;;;3.53;0.85;;;14.40;99.90;;;;;;5045712;28;20044;-37
2022/09/18 10:23:38;;;;;;;1.77;0.80;;;14.40;99.90;;;;;;5044201;28;20016;-35
2022/09/18 10:26:05;;;;;;;2.90;0.70;;;14.30;99.90;;;;;;5046003;28;20021;-36
2022/09/18 10:28:31;;;;;;;1.80;0.63;;;14.30;99.90;;;;;;5045682;28;20057;-37
2022/09/18 10:31:09;;;;;;;2.40;0.60;;;14.30;99.90;;;;;;5045507;28;20036;-36
2022/09/18 10:33:41;;;;;;;1.83;0.70;;;14.30;99.90;;;;;;5035879;28;20029;-37
2022/09/18 10:36:22;;;;;;;2.67;0.90;;;14.40;99.90;;;;;;5046043;28;20535;-35
2022/09/18 10:38:49;;;;;;;3.45;0.73;;;14.30;99.90;;;;;;5035823;28;20394;-36
2022/09/18 10:41:35;;;;;;;2.80;0.80;;;14.30;99.90;;;;;;5044849;28;20435;-35
2022/09/18 10:44:13;;;;;;;1.88;0.70;;;14.40;99.90;;;;;;5035987;28;20148;-35
2022/09/18 10:46:50;;;;;;;1.70;0.70;;;14.40;99.90;;;;;;5045277;28;20075;-35
2022/09/18 10:49:30;;;;;;;2.47;0.75;;;14.30;99.90;;;;;;5045025;28;20036;-36
2022/09/18 10:52:34;;;;;;;1.73;0.70;;;14.30;99.90;;;;;;5045141;28;20028;-35
2022/09/18 10:55:06;;;;;;;2.85;0.70;;;14.40;99.90;;;;;;5045796;28;20033;-35
2022/09/18 10:57:33;;;;;;;3.47;1.05;;;14.30;99.90;;;;;;5043062;28;20120;-36
2022/09/18 11:00:00;;;;;;;2.10;0.90;;;14.20;99.90;;;;;;5044288;28;20103;-35
2022/09/18 11:02:37;;;;;;;2.53;0.82;;;14.10;99.90;;;;;;5044424;28;20548;-35
2022/09/18 11:05:03;;;;;;;2.03;0.80;;;14.10;99.90;;;;;;5046136;28;20052;-36
2022/09/18 11:07:29;;;;;;;2.30;0.70;;;14.00;99.90;;;;;;5044710;28;20480;-35
2022/09/18 11:09:55;;;;;;;2.55;0.88;;;14.00;99.90;;;;;;5045946;28;20044;-36
2022/09/18 11:12:26;;;;;;;3.10;0.90;;;14.10;99.90;;;;;;5043212;28;20393;-36
2022/09/18 11:15:05;;;;;;;6.93;1.42;;;14.20;99.90;;;;;;5034133;28;20031;-34
2022/09/18 11:17:33;;;;;;;1.67;0.60;;;14.30;99.90;;;;;;5044771;28;20027;-35
2022/09/18 11:20:02;;;;;;;2.15;0.80;;;14.40;99.90;;;;;;5044886;28;20151;-35
2022/09/18 11:22:36;;;;;;;3.50;0.77;;;14.40;99.90;;;;;;5043448;28;20504;-35
2022/09/18 11:25:21;;;;;;;3.15;0.70;;;14.40;99.90;;;;;;5044819;28;20385;-36
2022/09/18 11:27:58;;;;;;;3.40;0.80;;;14.40;99.90;;;;;;5045172;28;20028;-35
2022/09/18 11:30:30;;;;;;;2.20;0.50;;;14.30;99.90;;;;;;5037606;28;20032;-35
2022/09/18 11:32:59;;;;;;;3.83;0.52;;;14.30;99.90;;;;;;5044337;28;20044;-35
2022/09/18 11:35:28;;;;;;;3.75;1.02;;;14.20;99.90;;;;;;5043622;28;20024;-35
2022/09/18 11:37:57;;;;;;;3.25;0.60;;;14.20;99.90;;;;;;5045419;28;20075;-36
2022/09/18 11:40:31;;;;;;;3.30;0.77;;;14.20;99.90;;;;;;5043671;28;20083;-36
2022/09/18 11:42:58;;;;;;;2.75;0.68;;;14.20;99.90;;;;;;5043176;28;20033;-36
2022/09/18 11:45:58;;;;;;;1.35;0.50;;;14.30;99.90;;;;;;5043698;28;20552;-37
2022/09/18 11:48:32;;;;;;;2.15;0.52;;;14.20;99.90;;;;;;5043954;28;20435;-37
2022/09/18 11:51:08;;;;;;;3.55;0.80;;;14.20;99.90;;;;;;5044748;28;20548;-35
2022/09/18 11:53:40;;;;;;;4.18;0.90;;;14.20;99.90;;;;;;5045196;28;20102;-36
2022/09/18 11:56:13;;;;;;;3.00;0.95;;;14.20;99.90;;;;;;5043704;28;20413;-35
2022/09/18 11:58:48;;;;;;;2.92;1.67;;;14.20;99.90;;;;;;5044469;28;20056;-35
2022/09/18 12:01:29;;;;;;;4.32;0.90;;;14.10;99.90;;;;;;5043863;28;20080;-36
2022/09/18 12:04:15;;;;;;;1.45;0.80;;;14.10;99.90;;;;;;5045033;28;20033;-35
2022/09/18 12:06:57;;;;;;;2.45;0.70;;;14.10;99.90;;;;;;5034777;28;20025;-36
2022/09/18 12:09:38;;;;;;;1.83;0.63;;;14.10;99.90;;;;;;5043565;28;20433;-35
2022/09/18 12:12:08;;;;;;;2.00;0.70;;;14.10;99.90;;;;;;5043974;28;20067;-34
2022/09/18 12:14:46;;;;;;;3.33;0.75;;;14.00;99.90;;;;;;5044715;28;20061;-35
2022/09/18 12:17:27;;;;;;;1.38;0.52;;;14.00;99.90;;;;;;5044061;28;20032;-35
2022/09/18 12:20:01;;;;;;;1.55;0.75;;;14.00;99.90;;;;;;5044267;28;20163;-35
2022/09/18 12:22:43;;;;;;;2.42;0.70;;;14.10;99.90;;;;;;5043643;28;20056;-35
2022/09/18 12:25:14;;;;;;;3.03;0.80;;;14.10;99.90;;;;;;5043574;28;20013;-34
2022/09/18 12:28:18;;;;;;;4.72;1.00;;;14.00;99.90;;;;;;5044556;28;20060;-36
2022/09/18 12:31:02;;;;;;;2.35;0.60;;;14.10;99.90;;;;;;5042220;28;20112;-36
2022/09/18 12:34:02;;;;;;;2.80;0.77;;;14.10;99.90;;;;;;5047530;28;20098;-39
2022/09/18 12:36:40;;;;;;;4.72;0.88;;;14.10;99.90;;;;;;5044500;28;20068;-38
2022/09/18 12:39:21;;;;;;;2.05;0.70;;;14.10;99.90;;;;;;5028543;28;20025;-36
2022/09/18 12:41:59;;;;;;;2.00;0.65;;;14.10;99.90;;;;;;5045183;28;20484;-36
2022/09/18 12:44:36;;;;;;;5.03;0.70;;;14.10;99.90;;;;;;5047754;28;20500;-38
2022/09/18 12:47:43;;;;;;;2.83;0.70;;;14.10;99.90;;;;;;5048158;28;20469;-37
2022/09/18 12:50:11;;;;;;;3.97;1.20;;;14.00;99.90;;;;;;5047724;28;20112;-36
2022/09/18 12:52:51;;;;;;;2.92;0.77;;;14.10;99.90;;;;;;5047407;28;20028;-35
2022/09/18 12:55:44;;;;;;;2.13;0.77;;;14.10;99.90;;;;;;5046897;28;20034;-36
2022/09/18 12:58:16;;;;;;;1.67;0.60;;;14.10;99.90;;;;;;5046269;28;20056;-36
2022/09/18 13:00:44;;;;;;;2.10;0.73;;;14.10;99.90;;;;;;5047254;28;20044;-36
2022/09/18 13:03:13;;;;;;;1.20;0.70;;;14.10;99.90;;;;;;5046878;28;20457;-36
2022/09/18 13:05:46;;;;;;;2.50;0.60;;;14.10;99.90;;;;;;5046998;28;20048;-35
2022/09/18 13:08:23;;;;;;;1.70;0.77;;;14.00;99.90;;;;;;5044071;28;20155;-35
2022/09/18 13:10:55;;;;;;;2.15;0.70;;;14.10;99.90;;;;;;5048028;28;20618;-35
2022/09/18 13:13:43;;;;;;;3.83;0.85;;;14.00;99.90;;;;;;5046471;28;20104;-35